sensor_id;sensor_type;location;lat;lon;timestamp;temperature;humidity
12303;DHT22;6214;48.012;7.862;2023-04-08T00:00:47;9.50;99.90
12303;DHT22;6214;48.012;7.862;2023-04-08T00:03:14;9.60;99.90
12303;DHT22;6214;48.012;7.862;2023-04-08T00:05:42;9.60;99.90
12303;DHT22;6214;48.012;7.862;2023-04-08T00:08:09;9.60;99.90
12303;DHT22;6214;48.012;7.862;2023-04-08T00:10:35;9.60;99.90
12303;DHT22;6214;48.012;7.862;2023-04-08T00:13:02;9.60;99.90
12303;DHT22;6214;48.012;7.862;2023-04-08T00:15:29;9.80;99.90
12303;DHT22;6214;48.012;7.862;2023-04-08T00:17:56;9.80;99.90
12303;DHT22;6214;48.012;7.862;2023-04-08T00:20:24;9.80;99.90
12303;DHT22;6214;48.012;7.862;2023-04-08T00:22:51;9.90;99.90
12303;DHT22;6214;48.012;7.862;2023-04-08T00:25:18;10.00;99.90
12303;DHT22;6214;48.012;7.862;2023-04-08T00:27:45;10.00;99.90
12303;DHT22;6214;48.012;7.862;2023-04-08T00:30:12;10.00;99.90
12303;DHT22;6214;48.012;7.862;2023-04-08T00:32:39;9.90;99.90
12303;DHT22;6214;48.012;7.862;2023-04-08T00:35:06;9.80;99.90
12303;DHT22;6214;48.012;7.862;2023-04-08T00:37:33;9.70;99.90
12303;DHT22;6214;48.012;7.862;2023-04-08T00:40:00;9.60;99.90
12303;DHT22;6214;48.012;7.862;2023-04-08T00:42:27;9.70;99.90
12303;DHT22;6214;48.012;7.862;2023-04-08T00:44:56;9.60;99.90
12303;DHT22;6214;48.012;7.862;2023-04-08T00:47:23;9.50;99.90
12303;DHT22;6214;48.012;7.862;2023-04-08T00:49:50;9.60;99.90
12303;DHT22;6214;48.012;7.862;2023-04-08T00:52:17;9.60;99.90
12303;DHT22;6214;48.012;7.862;2023-04-08T00:54:44;9.50;99.90
12303;DHT22;6214;48.012;7.862;2023-04-08T00:57:11;9.30;99.90
12303;DHT22;6214;48.012;7.862;2023-04-08T00:59:38;9.30;99.90
12303;DHT22;6214;48.012;7.862;2023-04-08T01:07:39;8.90;99.90
12303;DHT22;6214;48.012;7.862;2023-04-08T01:10:13;8.70;99.90
12303;DHT22;6214;48.012;7.862;2023-04-08T01:12:45;8.70;99.90
12303;DHT22;6214;48.012;7.862;2023-04-08T01:15:13;8.80;99.90
12303;DHT22;6214;48.012;7.862;2023-04-08T01:17:42;8.60;99.90
12303;DHT22;6214;48.012;7.862;2023-04-08T01:20:10;8.50;99.90
12303;DHT22;6214;48.012;7.862;2023-04-08T01:25:52;8.30;99.90
12303;DHT22;6214;48.012;7.862;2023-04-08T01:28:21;8.10;99.90
12303;DHT22;6214;48.012;7.862;2023-04-08T01:30:49;7.90;99.90
12303;DHT22;6214;48.012;7.862;2023-04-08T01:33:18;7.80;99.90
12303;DHT22;6214;48.012;7.862;2023-04-08T01:35:45;7.70;99.90
12303;DHT22;6214;48.012;7.862;2023-04-08T01:38:17;7.70;99.90
12303;DHT22;6214;48.012;7.862;2023-04-08T01:40:46;7.50;99.90
12303;DHT22;6214;48.012;7.862;2023-04-08T01:43:15;7.60;99.90
12303;DHT22;6214;48.012;7.862;2023-04-08T01:45:44;7.70;99.90
12303;DHT22;6214;48.012;7.862;2023-04-08T01:48:12;7.70;99.90
12303;DHT22;6214;48.012;7.862;2023-04-08T01:50:44;7.60;99.90
12303;DHT22;6214;48.012;7.862;2023-04-08T01:53:11;7.70;99.90
12303;DHT22;6214;48.012;7.862;2023-04-08T01:55:40;8.00;99.90
12303;DHT22;6214;48.012;7.862;2023-04-08T01:58:11;8.10;99.90
12303;DHT22;6214;48.012;7.862;2023-04-08T02:00:40;8.00;99.90
12303;DHT22;6214;48.012;7.862;2023-04-08T02:03:11;7.90;99.90
12303;DHT22;6214;48.012;7.862;2023-04-08T02:05:39;8.00;99.90
12303;DHT22;6214;48.012;7.862;2023-04-08T02:08:06;8.00;99.90
12303;DHT22;6214;48.012;7.862;2023-04-08T02:10:33;7.80;99.90
12303;DHT22;6214;48.012;7.862;2023-04-08T02:12:59;7.80;99.90
12303;DHT22;6214;48.012;7.862;2023-04-08T02:15:33;7.80;99.90
12303;DHT22;6214;48.012;7.862;2023-04-08T02:18:08;8.00;99.90
12303;DHT22;6214;48.012;7.862;2023-04-08T02:20:39;8.20;99.90
12303;DHT22;6214;48.012;7.862;2023-04-08T02:23:19;8.30;99.90
12303;DHT22;6214;48.012;7.862;2023-04-08T02:25:47;8.50;99.90
12303;DHT22;6214;48.012;7.862;2023-04-08T02:28:17;8.60;99.90
12303;DHT22;6214;48.012;7.862;2023-04-08T02:30:50;8.70;99.90
12303;DHT22;6214;48.012;7.862;2023-04-08T02:33:20;8.70;99.90
12303;DHT22;6214;48.012;7.862;2023-04-08T02:35:49;8.70;99.90
12303;DHT22;6214;48.012;7.862;2023-04-08T02:38:17;8.70;99.90
12303;DHT22;6214;48.012;7.862;2023-04-08T02:40:44;8.70;99.90
12303;DHT22;6214;48.012;7.862;2023-04-08T02:43:11;8.70;99.90
12303;DHT22;6214;48.012;7.862;2023-04-08T02:45:40;8.70;99.90
12303;DHT22;6214;48.012;7.862;2023-04-08T02:48:08;8.90;99.90
12303;DHT22;6214;48.012;7.862;2023-04-08T02:50:36;8.80;99.90
12303;DHT22;6214;48.012;7.862;2023-04-08T02:53:03;8.80;99.90
12303;DHT22;6214;48.012;7.862;2023-04-08T02:55:30;8.90;99.90
12303;DHT22;6214;48.012;7.862;2023-04-08T02:57:57;8.90;99.90
12303;DHT22;6214;48.012;7.862;2023-04-08T03:00:24;8.80;99.90
12303;DHT22;6214;48.012;7.862;2023-04-08T03:02:51;9.00;99.90
12303;DHT22;6214;48.012;7.862;2023-04-08T03:05:18;8.90;99.90
12303;DHT22;6214;48.012;7.862;2023-04-08T03:07:45;8.90;99.90
12303;DHT22;6214;48.012;7.862;2023-04-08T03:10:12;9.00;99.90
12303;DHT22;6214;48.012;7.862;2023-04-08T03:12:39;8.90;99.90
12303;DHT22;6214;48.012;7.862;2023-04-08T03:15:06;8.80;99.90
12303;DHT22;6214;48.012;7.862;2023-04-08T03:17:33;8.90;99.90
12303;DHT22;6214;48.012;7.862;2023-04-08T03:20:01;8.80;99.90
12303;DHT22;6214;48.012;7.862;2023-04-08T03:22:33;8.70;99.90
12303;DHT22;6214;48.012;7.862;2023-04-08T03:25:00;8.80;99.90
12303;DHT22;6214;48.012;7.862;2023-04-08T03:27:27;8.80;99.90
12303;DHT22;6214;48.012;7.862;2023-04-08T03:29:54;8.90;99.90
12303;DHT22;6214;48.012;7.862;2023-04-08T03:32:23;8.90;99.90
12303;DHT22;6214;48.012;7.862;2023-04-08T03:34:50;9.00;99.90
12303;DHT22;6214;48.012;7.862;2023-04-08T03:37:17;9.10;99.90
12303;DHT22;6214;48.012;7.862;2023-04-08T03:39:44;9.10;99.90
12303;DHT22;6214;48.012;7.862;2023-04-08T03:42:12;9.00;99.90
12303;DHT22;6214;48.012;7.862;2023-04-08T03:44:39;8.90;99.90
12303;DHT22;6214;48.012;7.862;2023-04-08T03:47:06;8.70;99.90
12303;DHT22;6214;48.012;7.862;2023-04-08T03:49:33;8.60;99.90
12303;DHT22;6214;48.012;7.862;2023-04-08T03:52:00;8.80;99.90
12303;DHT22;6214;48.012;7.862;2023-04-08T03:54:27;9.00;99.90
12303;DHT22;6214;48.012;7.862;2023-04-08T03:56:54;9.00;99.90
12303;DHT22;6214;48.012;7.862;2023-04-08T03:59:21;9.10;99.90
12303;DHT22;6214;48.012;7.862;2023-04-08T04:01:49;9.10;99.90
12303;DHT22;6214;48.012;7.862;2023-04-08T04:04:17;9.20;99.90
12303;DHT22;6214;48.012;7.862;2023-04-08T04:06:44;9.10;99.90
12303;DHT22;6214;48.012;7.862;2023-04-08T04:09:11;9.00;99.90
12303;DHT22;6214;48.012;7.862;2023-04-08T04:11:38;8.80;99.90
12303;DHT22;6214;48.012;7.862;2023-04-08T04:14:05;8.70;99.90
12303;DHT22;6214;48.012;7.862;2023-04-08T04:16:32;8.70;99.90
12303;DHT22;6214;48.012;7.862;2023-04-08T04:18:59;8.80;99.90
12303;DHT22;6214;48.012;7.862;2023-04-08T04:21:26;8.80;99.90
12303;DHT22;6214;48.012;7.862;2023-04-08T04:23:53;8.80;99.90
12303;DHT22;6214;48.012;7.862;2023-04-08T04:26:20;8.80;99.90
12303;DHT22;6214;48.012;7.862;2023-04-08T04:28:47;9.00;99.90
12303;DHT22;6214;48.012;7.862;2023-04-08T04:31:19;9.10;99.90
12303;DHT22;6214;48.012;7.862;2023-04-08T04:33:48;9.10;99.90
12303;DHT22;6214;48.012;7.862;2023-04-08T04:36:15;9.10;99.90
12303;DHT22;6214;48.012;7.862;2023-04-08T04:38:42;9.20;99.90
12303;DHT22;6214;48.012;7.862;2023-04-08T04:41:10;9.10;99.90
12303;DHT22;6214;48.012;7.862;2023-04-08T04:43:37;8.90;99.90
12303;DHT22;6214;48.012;7.862;2023-04-08T04:46:04;8.80;99.90
12303;DHT22;6214;48.012;7.862;2023-04-08T04:48:35;8.80;99.90
12303;DHT22;6214;48.012;7.862;2023-04-08T04:51:02;8.90;99.90
12303;DHT22;6214;48.012;7.862;2023-04-08T04:53:30;8.90;99.90
12303;DHT22;6214;48.012;7.862;2023-04-08T04:55:57;8.80;99.90
12303;DHT22;6214;48.012;7.862;2023-04-08T04:58:27;8.80;99.90
12303;DHT22;6214;48.012;7.862;2023-04-08T05:00:55;9.10;99.90
12303;DHT22;6214;48.012;7.862;2023-04-08T05:03:22;9.20;99.90
12303;DHT22;6214;48.012;7.862;2023-04-08T05:05:53;9.30;99.90
12303;DHT22;6214;48.012;7.862;2023-04-08T05:08:20;9.40;99.90
12303;DHT22;6214;48.012;7.862;2023-04-08T05:10:47;9.40;99.90
12303;DHT22;6214;48.012;7.862;2023-04-08T05:13:17;9.40;99.90
12303;DHT22;6214;48.012;7.862;2023-04-08T05:15:44;9.30;99.90
12303;DHT22;6214;48.012;7.862;2023-04-08T05:18:12;9.10;99.90
12303;DHT22;6214;48.012;7.862;2023-04-08T05:20:39;9.00;99.90
12303;DHT22;6214;48.012;7.862;2023-04-08T05:23:06;9.00;99.90
12303;DHT22;6214;48.012;7.862;2023-04-08T05:25:34;9.20;99.90
12303;DHT22;6214;48.012;7.862;2023-04-08T05:28:01;9.40;99.90
12303;DHT22;6214;48.012;7.862;2023-04-08T05:30:28;9.50;99.90
12303;DHT22;6214;48.012;7.862;2023-04-08T05:32:55;9.40;99.90
12303;DHT22;6214;48.012;7.862;2023-04-08T05:35:26;9.30;99.90
12303;DHT22;6214;48.012;7.862;2023-04-08T05:37:53;9.20;99.90
12303;DHT22;6214;48.012;7.862;2023-04-08T05:40:20;9.30;99.90
12303;DHT22;6214;48.012;7.862;2023-04-08T05:42:47;9.50;99.90
12303;DHT22;6214;48.012;7.862;2023-04-08T05:45:14;9.70;99.90
12303;DHT22;6214;48.012;7.862;2023-04-08T05:47:42;10.00;99.90
12303;DHT22;6214;48.012;7.862;2023-04-08T05:50:09;10.10;99.90
12303;DHT22;6214;48.012;7.862;2023-04-08T05:52:40;10.30;99.90
12303;DHT22;6214;48.012;7.862;2023-04-08T05:55:08;10.50;99.90
12303;DHT22;6214;48.012;7.862;2023-04-08T05:57:35;10.70;99.90
12303;DHT22;6214;48.012;7.862;2023-04-08T06:00:06;10.90;99.90
12303;DHT22;6214;48.012;7.862;2023-04-08T06:02:34;10.90;99.90
12303;DHT22;6214;48.012;7.862;2023-04-08T06:05:02;10.70;99.90
12303;DHT22;6214;48.012;7.862;2023-04-08T06:07:31;10.60;99.90
12303;DHT22;6214;48.012;7.862;2023-04-08T06:09:58;10.40;99.90
12303;DHT22;6214;48.012;7.862;2023-04-08T06:12:25;10.30;99.90
12303;DHT22;6214;48.012;7.862;2023-04-08T06:14:53;10.30;99.90
12303;DHT22;6214;48.012;7.862;2023-04-08T06:17:21;10.40;99.90
12303;DHT22;6214;48.012;7.862;2023-04-08T06:19:49;10.50;99.90
12303;DHT22;6214;48.012;7.862;2023-04-08T06:22:16;10.50;99.90
12303;DHT22;6214;48.012;7.862;2023-04-08T06:24:42;10.70;99.90
12303;DHT22;6214;48.012;7.862;2023-04-08T06:27:09;10.90;99.90
12303;DHT22;6214;48.012;7.862;2023-04-08T06:29:36;10.80;99.90
12303;DHT22;6214;48.012;7.862;2023-04-08T06:32:04;10.80;99.90
12303;DHT22;6214;48.012;7.862;2023-04-08T06:34:32;10.90;99.90
12303;DHT22;6214;48.012;7.862;2023-04-08T06:36:59;11.10;99.90
12303;DHT22;6214;48.012;7.862;2023-04-08T06:39:26;11.10;99.90
12303;DHT22;6214;48.012;7.862;2023-04-08T06:41:53;10.80;99.90
12303;DHT22;6214;48.012;7.862;2023-04-08T06:44:20;10.50;99.90
12303;DHT22;6214;48.012;7.862;2023-04-08T06:46:47;10.70;99.90
12303;DHT22;6214;48.012;7.862;2023-04-08T06:49:14;10.80;99.90
12303;DHT22;6214;48.012;7.862;2023-04-08T06:51:41;10.60;99.90
12303;DHT22;6214;48.012;7.862;2023-04-08T06:54:08;10.50;99.90
12303;DHT22;6214;48.012;7.862;2023-04-08T06:56:38;10.70;99.90
12303;DHT22;6214;48.012;7.862;2023-04-08T06:59:05;10.50;99.90
12303;DHT22;6214;48.012;7.862;2023-04-08T07:01:32;10.30;99.90
12303;DHT22;6214;48.012;7.862;2023-04-08T07:03:59;10.40;99.90
12303;DHT22;6214;48.012;7.862;2023-04-08T07:06:28;10.40;99.90
12303;DHT22;6214;48.012;7.862;2023-04-08T07:08:55;10.40;99.90
12303;DHT22;6214;48.012;7.862;2023-04-08T07:11:22;10.40;99.90
12303;DHT22;6214;48.012;7.862;2023-04-08T07:13:48;10.80;99.90
12303;DHT22;6214;48.012;7.862;2023-04-08T07:16:16;10.90;99.90
12303;DHT22;6214;48.012;7.862;2023-04-08T07:18:43;11.10;99.90
12303;DHT22;6214;48.012;7.862;2023-04-08T07:21:10;11.20;99.90
12303;DHT22;6214;48.012;7.862;2023-04-08T07:23:38;11.40;99.90
12303;DHT22;6214;48.012;7.862;2023-04-08T07:26:05;11.80;99.90
12303;DHT22;6214;48.012;7.862;2023-04-08T07:28:32;11.80;99.90
12303;DHT22;6214;48.012;7.862;2023-04-08T07:31:14;12.10;99.90
12303;DHT22;6214;48.012;7.862;2023-04-08T07:33:42;11.90;99.90
12303;DHT22;6214;48.012;7.862;2023-04-08T07:36:10;11.80;99.90
12303;DHT22;6214;48.012;7.862;2023-04-08T07:38:38;12.00;99.90
12303;DHT22;6214;48.012;7.862;2023-04-08T07:41:05;12.40;99.90
12303;DHT22;6214;48.012;7.862;2023-04-08T07:43:33;12.20;99.90
12303;DHT22;6214;48.012;7.862;2023-04-08T07:46:00;12.40;99.90
12303;DHT22;6214;48.012;7.862;2023-04-08T07:48:31;12.50;99.90
12303;DHT22;6214;48.012;7.862;2023-04-08T07:51:06;12.30;99.90
12303;DHT22;6214;48.012;7.862;2023-04-08T07:53:37;12.20;99.90
12303;DHT22;6214;48.012;7.862;2023-04-08T07:56:14;12.20;99.90
12303;DHT22;6214;48.012;7.862;2023-04-08T07:58:42;12.80;99.90
12303;DHT22;6214;48.012;7.862;2023-04-08T08:01:27;13.20;99.90
12303;DHT22;6214;48.012;7.862;2023-04-08T08:03:57;13.60;99.90
12303;DHT22;6214;48.012;7.862;2023-04-08T08:06:24;14.10;99.90
12303;DHT22;6214;48.012;7.862;2023-04-08T08:08:52;14.50;99.90
12303;DHT22;6214;48.012;7.862;2023-04-08T08:11:18;15.10;99.90
12303;DHT22;6214;48.012;7.862;2023-04-08T08:13:47;15.30;99.90
12303;DHT22;6214;48.012;7.862;2023-04-08T08:16:14;15.40;99.90
12303;DHT22;6214;48.012;7.862;2023-04-08T08:18:41;15.60;99.90
12303;DHT22;6214;48.012;7.862;2023-04-08T08:21:08;15.70;99.90
12303;DHT22;6214;48.012;7.862;2023-04-08T08:23:36;14.90;99.90
12303;DHT22;6214;48.012;7.862;2023-04-08T08:26:05;14.90;99.90
12303;DHT22;6214;48.012;7.862;2023-04-08T08:28:33;15.20;99.90
12303;DHT22;6214;48.012;7.862;2023-04-08T08:31:00;16.00;99.90
12303;DHT22;6214;48.012;7.862;2023-04-08T08:33:28;17.00;99.90
12303;DHT22;6214;48.012;7.862;2023-04-08T08:35:55;18.10;99.90
12303;DHT22;6214;48.012;7.862;2023-04-08T08:38:24;18.20;99.90
12303;DHT22;6214;48.012;7.862;2023-04-08T08:40:58;18.00;99.90
12303;DHT22;6214;48.012;7.862;2023-04-08T08:43:26;18.20;99.90
12303;DHT22;6214;48.012;7.862;2023-04-08T08:45:54;18.20;99.90
12303;DHT22;6214;48.012;7.862;2023-04-08T08:48:21;17.70;99.90
12303;DHT22;6214;48.012;7.862;2023-04-08T08:50:48;17.50;99.90
12303;DHT22;6214;48.012;7.862;2023-04-08T08:53:15;17.10;99.90
12303;DHT22;6214;48.012;7.862;2023-04-08T08:55:42;16.40;99.90
12303;DHT22;6214;48.012;7.862;2023-04-08T08:58:12;15.70;99.90
12303;DHT22;6214;48.012;7.862;2023-04-08T09:00:41;15.50;99.90
12303;DHT22;6214;48.012;7.862;2023-04-08T09:03:24;15.20;99.90
12303;DHT22;6214;48.012;7.862;2023-04-08T09:05:55;15.00;99.90
12303;DHT22;6214;48.012;7.862;2023-04-08T09:08:35;15.40;99.90
12303;DHT22;6214;48.012;7.862;2023-04-08T09:11:19;15.40;99.90
12303;DHT22;6214;48.012;7.862;2023-04-08T09:13:49;15.30;99.90
12303;DHT22;6214;48.012;7.862;2023-04-08T09:16:17;15.60;99.90
12303;DHT22;6214;48.012;7.862;2023-04-08T09:18:46;15.60;99.90
12303;DHT22;6214;48.012;7.862;2023-04-08T09:21:16;16.10;99.90
12303;DHT22;6214;48.012;7.862;2023-04-08T09:23:50;16.20;99.90
12303;DHT22;6214;48.012;7.862;2023-04-08T09:26:20;16.30;99.90
12303;DHT22;6214;48.012;7.862;2023-04-08T09:29:05;16.40;99.90
12303;DHT22;6214;48.012;7.862;2023-04-08T09:31:54;16.10;99.90
12303;DHT22;6214;48.012;7.862;2023-04-08T09:34:25;15.70;99.90
12303;DHT22;6214;48.012;7.862;2023-04-08T09:36:53;14.90;99.90
12303;DHT22;6214;48.012;7.862;2023-04-08T09:39:21;14.70;99.90
12303;DHT22;6214;48.012;7.862;2023-04-08T09:41:49;14.20;99.90
12303;DHT22;6214;48.012;7.862;2023-04-08T09:44:18;14.30;99.90
12303;DHT22;6214;48.012;7.862;2023-04-08T09:49:45;13.90;99.90
12303;DHT22;6214;48.012;7.862;2023-04-08T09:52:32;13.90;99.90
12303;DHT22;6214;48.012;7.862;2023-04-08T09:55:08;13.90;99.90
12303;DHT22;6214;48.012;7.862;2023-04-08T09:57:54;13.60;99.90
12303;DHT22;6214;48.012;7.862;2023-04-08T10:00:36;13.50;99.90
12303;DHT22;6214;48.012;7.862;2023-04-08T10:05:52;13.20;99.90
12303;DHT22;6214;48.012;7.862;2023-04-08T10:08:20;13.00;99.90
12303;DHT22;6214;48.012;7.862;2023-04-08T10:10:47;12.80;99.90
12303;DHT22;6214;48.012;7.862;2023-04-08T10:13:14;12.70;99.90
12303;DHT22;6214;48.012;7.862;2023-04-08T10:15:42;12.60;99.90
12303;DHT22;6214;48.012;7.862;2023-04-08T10:20:46;12.20;99.90
12303;DHT22;6214;48.012;7.862;2023-04-08T10:24:05;11.90;99.90
12303;DHT22;6214;48.012;7.862;2023-04-08T10:26:42;11.90;99.90
12303;DHT22;6214;48.012;7.862;2023-04-08T10:31:54;12.20;99.90
12303;DHT22;6214;48.012;7.862;2023-04-08T10:34:24;12.30;99.90
12303;DHT22;6214;48.012;7.862;2023-04-08T10:36:54;12.50;99.90
12303;DHT22;6214;48.012;7.862;2023-04-08T10:39:21;12.80;99.90
12303;DHT22;6214;48.012;7.862;2023-04-08T10:41:49;13.00;99.90
12303;DHT22;6214;48.012;7.862;2023-04-08T10:44:22;13.30;99.90
12303;DHT22;6214;48.012;7.862;2023-04-08T10:46:50;13.90;99.90
12303;DHT22;6214;48.012;7.862;2023-04-08T10:49:17;14.50;99.90
12303;DHT22;6214;48.012;7.862;2023-04-08T10:51:45;14.90;99.90
12303;DHT22;6214;48.012;7.862;2023-04-08T10:54:14;15.60;99.90
12303;DHT22;6214;48.012;7.862;2023-04-08T10:56:47;15.90;99.90
12303;DHT22;6214;48.012;7.862;2023-04-08T10:59:17;16.30;99.90
12303;DHT22;6214;48.012;7.862;2023-04-08T11:01:45;16.50;99.90
12303;DHT22;6214;48.012;7.862;2023-04-08T11:04:14;16.80;99.90
12303;DHT22;6214;48.012;7.862;2023-04-08T11:06:43;17.20;99.90
12303;DHT22;6214;48.012;7.862;2023-04-08T11:09:10;17.30;99.90
12303;DHT22;6214;48.012;7.862;2023-04-08T11:11:37;17.80;99.90
12303;DHT22;6214;48.012;7.862;2023-04-08T11:14:05;17.50;99.90
12303;DHT22;6214;48.012;7.862;2023-04-08T11:16:33;18.10;99.90
12303;DHT22;6214;48.012;7.862;2023-04-08T11:19:02;17.90;99.90
12303;DHT22;6214;48.012;7.862;2023-04-08T11:21:32;17.90;99.90
12303;DHT22;6214;48.012;7.862;2023-04-08T11:24:04;17.30;99.90
12303;DHT22;6214;48.012;7.862;2023-04-08T11:26:31;17.30;99.90
12303;DHT22;6214;48.012;7.862;2023-04-08T11:28:59;17.20;99.90
12303;DHT22;6214;48.012;7.862;2023-04-08T11:31:26;17.10;99.90
12303;DHT22;6214;48.012;7.862;2023-04-08T11:33:54;17.00;99.90
12303;DHT22;6214;48.012;7.862;2023-04-08T11:36:22;17.10;99.90
12303;DHT22;6214;48.012;7.862;2023-04-08T11:38:49;16.60;99.90
12303;DHT22;6214;48.012;7.862;2023-04-08T11:41:19;16.40;99.90
12303;DHT22;6214;48.012;7.862;2023-04-08T11:43:52;16.40;99.90
12303;DHT22;6214;48.012;7.862;2023-04-08T11:46:19;16.50;99.90
12303;DHT22;6214;48.012;7.862;2023-04-08T11:49:00;16.80;99.90
12303;DHT22;6214;48.012;7.862;2023-04-08T11:51:27;16.50;99.90
12303;DHT22;6214;48.012;7.862;2023-04-08T11:53:54;16.50;99.90
12303;DHT22;6214;48.012;7.862;2023-04-08T11:56:23;16.70;99.90
12303;DHT22;6214;48.012;7.862;2023-04-08T11:58:51;16.30;99.90
12303;DHT22;6214;48.012;7.862;2023-04-08T12:01:19;16.40;99.90
12303;DHT22;6214;48.012;7.862;2023-04-08T12:03:57;16.70;99.90
12303;DHT22;6214;48.012;7.862;2023-04-08T12:06:25;16.40;99.90
12303;DHT22;6214;48.012;7.862;2023-04-08T12:08:54;16.60;99.90
12303;DHT22;6214;48.012;7.862;2023-04-08T12:11:22;16.80;99.90
12303;DHT22;6214;48.012;7.862;2023-04-08T12:13:49;17.00;99.90
12303;DHT22;6214;48.012;7.862;2023-04-08T12:16:17;16.60;99.90
12303;DHT22;6214;48.012;7.862;2023-04-08T12:18:45;16.50;99.90
12303;DHT22;6214;48.012;7.862;2023-04-08T12:21:12;16.50;99.90
12303;DHT22;6214;48.012;7.862;2023-04-08T12:23:39;16.10;99.90
12303;DHT22;6214;48.012;7.862;2023-04-08T12:26:06;15.80;99.90
12303;DHT22;6214;48.012;7.862;2023-04-08T12:28:33;15.80;99.90
12303;DHT22;6214;48.012;7.862;2023-04-08T12:31:02;16.20;99.90
12303;DHT22;6214;48.012;7.862;2023-04-08T12:33:29;16.20;99.90
12303;DHT22;6214;48.012;7.862;2023-04-08T12:35:56;16.50;99.90
12303;DHT22;6214;48.012;7.862;2023-04-08T12:38:27;16.60;99.90
12303;DHT22;6214;48.012;7.862;2023-04-08T12:40:55;16.60;99.90
12303;DHT22;6214;48.012;7.862;2023-04-08T12:43:22;16.90;99.90
12303;DHT22;6214;48.012;7.862;2023-04-08T12:45:50;16.90;99.90
12303;DHT22;6214;48.012;7.862;2023-04-08T12:48:17;16.60;99.90
12303;DHT22;6214;48.012;7.862;2023-04-08T12:50:44;16.30;99.90
12303;DHT22;6214;48.012;7.862;2023-04-08T12:53:11;16.60;99.90
12303;DHT22;6214;48.012;7.862;2023-04-08T12:55:38;17.00;99.90
12303;DHT22;6214;48.012;7.862;2023-04-08T12:58:05;17.60;99.90
12303;DHT22;6214;48.012;7.862;2023-04-08T13:00:33;17.50;99.90
12303;DHT22;6214;48.012;7.862;2023-04-08T13:03:04;16.70;99.90
12303;DHT22;6214;48.012;7.862;2023-04-08T13:05:32;16.60;99.90
12303;DHT22;6214;48.012;7.862;2023-04-08T13:08:05;16.40;99.90
12303;DHT22;6214;48.012;7.862;2023-04-08T13:10:32;15.80;99.90
12303;DHT22;6214;48.012;7.862;2023-04-08T13:12:59;15.40;99.90
12303;DHT22;6214;48.012;7.862;2023-04-08T13:15:26;15.30;99.90
12303;DHT22;6214;48.012;7.862;2023-04-08T13:17:53;15.40;99.90
12303;DHT22;6214;48.012;7.862;2023-04-08T13:20:21;15.80;99.90
12303;DHT22;6214;48.012;7.862;2023-04-08T13:22:52;15.80;99.90
12303;DHT22;6214;48.012;7.862;2023-04-08T13:25:19;15.80;99.90
12303;DHT22;6214;48.012;7.862;2023-04-08T13:27:46;16.20;99.90
12303;DHT22;6214;48.012;7.862;2023-04-08T13:30:13;16.50;99.90
12303;DHT22;6214;48.012;7.862;2023-04-08T13:32:40;16.40;99.90
12303;DHT22;6214;48.012;7.862;2023-04-08T13:35:07;16.10;99.90
12303;DHT22;6214;48.012;7.862;2023-04-08T13:37:35;16.10;99.90
12303;DHT22;6214;48.012;7.862;2023-04-08T13:40:02;16.30;99.90
12303;DHT22;6214;48.012;7.862;2023-04-08T13:42:29;16.60;99.90
12303;DHT22;6214;48.012;7.862;2023-04-08T13:44:59;16.80;99.90
12303;DHT22;6214;48.012;7.862;2023-04-08T13:47:27;16.70;99.90
12303;DHT22;6214;48.012;7.862;2023-04-08T13:49:54;16.20;99.90
12303;DHT22;6214;48.012;7.862;2023-04-08T13:52:21;16.10;99.90
12303;DHT22;6214;48.012;7.862;2023-04-08T13:54:48;16.00;99.90
12303;DHT22;6214;48.012;7.862;2023-04-08T13:57:15;15.80;99.90
12303;DHT22;6214;48.012;7.862;2023-04-08T13:59:42;15.70;99.90
12303;DHT22;6214;48.012;7.862;2023-04-08T14:02:10;15.40;99.90
12303;DHT22;6214;48.012;7.862;2023-04-08T14:04:38;15.00;99.90
12303;DHT22;6214;48.012;7.862;2023-04-08T14:07:06;14.90;99.90
12303;DHT22;6214;48.012;7.862;2023-04-08T14:09:33;15.00;99.90
12303;DHT22;6214;48.012;7.862;2023-04-08T14:12:00;14.90;99.90
12303;DHT22;6214;48.012;7.862;2023-04-08T14:14:27;14.50;99.90
12303;DHT22;6214;48.012;7.862;2023-04-08T14:16:53;14.50;99.90
12303;DHT22;6214;48.012;7.862;2023-04-08T14:19:21;14.30;99.90
12303;DHT22;6214;48.012;7.862;2023-04-08T14:21:48;14.30;99.90
12303;DHT22;6214;48.012;7.862;2023-04-08T14:24:15;14.30;99.90
12303;DHT22;6214;48.012;7.862;2023-04-08T14:26:42;14.30;99.90
12303;DHT22;6214;48.012;7.862;2023-04-08T14:29:09;14.10;99.90
12303;DHT22;6214;48.012;7.862;2023-04-08T14:31:37;14.10;99.90
12303;DHT22;6214;48.012;7.862;2023-04-08T14:34:04;14.10;99.90
12303;DHT22;6214;48.012;7.862;2023-04-08T14:36:31;14.00;99.90
12303;DHT22;6214;48.012;7.862;2023-04-08T14:38:58;13.90;99.90
12303;DHT22;6214;48.012;7.862;2023-04-08T14:41:25;13.70;99.90
12303;DHT22;6214;48.012;7.862;2023-04-08T14:43:53;13.50;99.90
12303;DHT22;6214;48.012;7.862;2023-04-08T14:46:20;13.60;99.90
12303;DHT22;6214;48.012;7.862;2023-04-08T14:48:47;13.80;99.90
12303;DHT22;6214;48.012;7.862;2023-04-08T14:51:14;13.90;99.90
12303;DHT22;6214;48.012;7.862;2023-04-08T14:53:41;13.80;99.90
12303;DHT22;6214;48.012;7.862;2023-04-08T14:56:08;13.70;99.90
12303;DHT22;6214;48.012;7.862;2023-04-08T14:58:36;13.80;99.90
12303;DHT22;6214;48.012;7.862;2023-04-08T15:01:03;13.80;99.90
12303;DHT22;6214;48.012;7.862;2023-04-08T15:03:30;13.80;99.90
12303;DHT22;6214;48.012;7.862;2023-04-08T15:05:57;13.80;99.90
12303;DHT22;6214;48.012;7.862;2023-04-08T15:08:25;13.90;99.90
12303;DHT22;6214;48.012;7.862;2023-04-08T15:10:52;14.00;99.90
12303;DHT22;6214;48.012;7.862;2023-04-08T15:13:19;14.10;99.90
12303;DHT22;6214;48.012;7.862;2023-04-08T15:15:46;14.20;99.90
12303;DHT22;6214;48.012;7.862;2023-04-08T15:18:13;14.40;99.90
12303;DHT22;6214;48.012;7.862;2023-04-08T15:20:40;14.40;99.90
12303;DHT22;6214;48.012;7.862;2023-04-08T15:23:07;14.50;99.90
12303;DHT22;6214;48.012;7.862;2023-04-08T15:25:34;14.40;99.90
12303;DHT22;6214;48.012;7.862;2023-04-08T15:28:01;14.40;99.90
12303;DHT22;6214;48.012;7.862;2023-04-08T15:30:30;14.70;99.90
12303;DHT22;6214;48.012;7.862;2023-04-08T15:33:04;14.80;99.90
12303;DHT22;6214;48.012;7.862;2023-04-08T15:35:31;14.80;99.90
12303;DHT22;6214;48.012;7.862;2023-04-08T15:37:59;15.00;99.90
12303;DHT22;6214;48.012;7.862;2023-04-08T15:40:26;15.10;99.90
12303;DHT22;6214;48.012;7.862;2023-04-08T15:42:53;15.10;99.90
12303;DHT22;6214;48.012;7.862;2023-04-08T15:45:21;15.00;99.90
12303;DHT22;6214;48.012;7.862;2023-04-08T15:47:48;15.30;99.90
12303;DHT22;6214;48.012;7.862;2023-04-08T15:50:15;15.40;99.90
12303;DHT22;6214;48.012;7.862;2023-04-08T15:52:43;15.40;99.90
12303;DHT22;6214;48.012;7.862;2023-04-08T15:55:10;15.40;99.90
12303;DHT22;6214;48.012;7.862;2023-04-08T15:57:37;15.60;99.90
12303;DHT22;6214;48.012;7.862;2023-04-08T16:00:11;15.60;99.90
12303;DHT22;6214;48.012;7.862;2023-04-08T16:02:40;15.60;99.90
12303;DHT22;6214;48.012;7.862;2023-04-08T16:05:08;15.60;99.90
12303;DHT22;6214;48.012;7.862;2023-04-08T16:07:35;15.40;99.90
12303;DHT22;6214;48.012;7.862;2023-04-08T16:10:03;15.00;99.90
12303;DHT22;6214;48.012;7.862;2023-04-08T16:12:30;14.80;99.90
12303;DHT22;6214;48.012;7.862;2023-04-08T16:14:58;14.80;99.90
12303;DHT22;6214;48.012;7.862;2023-04-08T16:17:25;14.90;99.90
12303;DHT22;6214;48.012;7.862;2023-04-08T16:19:53;14.80;99.90